sensor_id;sensor_type;location;lat;lon;timestamp;P1;durP1;ratioP1;P2;durP2;ratioP2
15831;SDS011;8016;49.928;9.372;2022-09-02T00:02:02;2.20;;;2.00;;
15831;SDS011;8016;49.928;9.372;2022-09-02T00:04:29;2.80;;;2.00;;
15831;SDS011;8016;49.928;9.372;2022-09-02T00:06:55;5.43;;;2.13;;
15831;SDS011;8016;49.928;9.372;2022-09-02T00:09:22;4.17;;;2.40;;
15831;SDS011;8016;49.928;9.372;2022-09-02T00:11:49;2.90;;;2.27;;
15831;SDS011;8016;49.928;9.372;2022-09-02T00:14:21;2.23;;;1.97;;
15831;SDS011;8016;49.928;9.372;2022-09-02T00:16:48;3.57;;;1.87;;
15831;SDS011;8016;49.928;9.372;2022-09-02T00:19:18;3.30;;;2.07;;
15831;SDS011;8016;49.928;9.372;2022-09-02T00:21:45;2.70;;;2.17;;
15831;SDS011;8016;49.928;9.372;2022-09-02T00:24:11;3.50;;;2.13;;
15831;SDS011;8016;49.928;9.372;2022-09-02T00:26:37;3.53;;;2.00;;
15831;SDS011;8016;49.928;9.372;2022-09-02T00:29:03;2.20;;;1.90;;
15831;SDS011;8016;49.928;9.372;2022-09-02T00:31:29;2.33;;;2.13;;
15831;SDS011;8016;49.928;9.372;2022-09-02T00:33:57;3.87;;;1.80;;
15831;SDS011;8016;49.928;9.372;2022-09-02T00:36:23;2.60;;;1.77;;
15831;SDS011;8016;49.928;9.372;2022-09-02T00:38:49;2.10;;;1.90;;
15831;SDS011;8016;49.928;9.372;2022-09-02T00:41:18;4.37;;;1.70;;
15831;SDS011;8016;49.928;9.372;2022-09-02T00:43:50;2.73;;;2.07;;
15831;SDS011;8016;49.928;9.372;2022-09-02T00:46:17;2.83;;;2.00;;
15831;SDS011;8016;49.928;9.372;2022-09-02T00:48:48;2.30;;;2.10;;
15831;SDS011;8016;49.928;9.372;2022-09-02T00:51:18;3.67;;;2.07;;
15831;SDS011;8016;49.928;9.372;2022-09-02T00:53:46;3.10;;;2.43;;
15831;SDS011;8016;49.928;9.372;2022-09-02T00:56:14;2.50;;;2.30;;
15831;SDS011;8016;49.928;9.372;2022-09-02T00:58:40;4.37;;;2.03;;
15831;SDS011;8016;49.928;9.372;2022-09-02T01:01:07;2.37;;;1.97;;
15831;SDS011;8016;49.928;9.372;2022-09-02T01:03:35;2.97;;;2.00;;
15831;SDS011;8016;49.928;9.372;2022-09-02T01:06:01;2.07;;;1.90;;
15831;SDS011;8016;49.928;9.372;2022-09-02T01:08:29;3.13;;;2.20;;
15831;SDS011;8016;49.928;9.372;2022-09-02T01:10:58;2.97;;;2.23;;
15831;SDS011;8016;49.928;9.372;2022-09-02T01:13:26;4.67;;;2.27;;
15831;SDS011;8016;49.928;9.372;2022-09-02T01:15:57;2.30;;;2.10;;
15831;SDS011;8016;49.928;9.372;2022-09-02T01:18:25;4.23;;;2.10;;
15831;SDS011;8016;49.928;9.372;2022-09-02T01:20:53;3.00;;;2.10;;
15831;SDS011;8016;49.928;9.372;2022-09-02T01:23:19;2.33;;;2.03;;
15831;SDS011;8016;49.928;9.372;2022-09-02T01:25:45;5.33;;;2.73;;
15831;SDS011;8016;49.928;9.372;2022-09-02T01:28:13;2.87;;;2.57;;
15831;SDS011;8016;49.928;9.372;2022-09-02T01:30:40;2.40;;;2.20;;
15831;SDS011;8016;49.928;9.372;2022-09-02T01:33:07;3.00;;;2.23;;
15831;SDS011;8016;49.928;9.372;2022-09-02T01:35:33;2.90;;;2.60;;
15831;SDS011;8016;49.928;9.372;2022-09-02T01:38:00;2.50;;;2.30;;
15831;SDS011;8016;49.928;9.372;2022-09-02T01:40:27;5.07;;;2.37;;
15831;SDS011;8016;49.928;9.372;2022-09-02T01:42:54;3.20;;;2.30;;
15831;SDS011;8016;49.928;9.372;2022-09-02T01:45:21;3.27;;;2.13;;
15831;SDS011;8016;49.928;9.372;2022-09-02T01:47:46;5.43;;;2.40;;
15831;SDS011;8016;49.928;9.372;2022-09-02T01:50:12;2.40;;;2.20;;
15831;SDS011;8016;49.928;9.372;2022-09-02T01:52:38;2.77;;;2.57;;
15831;SDS011;8016;49.928;9.372;2022-09-02T01:55:05;3.97;;;2.50;;
15831;SDS011;8016;49.928;9.372;2022-09-02T01:57:31;2.70;;;2.50;;
15831;SDS011;8016;49.928;9.372;2022-09-02T01:59:57;2.07;;;1.87;;
15831;SDS011;8016;49.928;9.372;2022-09-02T02:02:25;2.77;;;2.53;;
15831;SDS011;8016;49.928;9.372;2022-09-02T02:04:51;5.50;;;2.67;;
15831;SDS011;8016;49.928;9.372;2022-09-02T02:07:19;2.83;;;2.13;;
15831;SDS011;8016;49.928;9.372;2022-09-02T02:09:46;3.93;;;2.50;;
15831;SDS011;8016;49.928;9.372;2022-09-02T02:12:13;3.40;;;2.30;;
15831;SDS011;8016;49.928;9.372;2022-09-02T02:14:39;4.33;;;2.70;;
15831;SDS011;8016;49.928;9.372;2022-09-02T02:17:05;2.93;;;2.57;;
15831;SDS011;8016;49.928;9.372;2022-09-02T02:19:31;2.40;;;2.20;;
15831;SDS011;8016;49.928;9.372;2022-09-02T02:21:57;2.93;;;2.70;;
15831;SDS011;8016;49.928;9.372;2022-09-02T02:24:23;2.83;;;2.33;;
15831;SDS011;8016;49.928;9.372;2022-09-02T02:26:49;6.17;;;2.43;;
15831;SDS011;8016;49.928;9.372;2022-09-02T02:29:15;3.10;;;2.27;;
15831;SDS011;8016;49.928;9.372;2022-09-02T02:31:42;2.83;;;2.53;;
15831;SDS011;8016;49.928;9.372;2022-09-02T02:34:08;2.23;;;2.10;;
15831;SDS011;8016;49.928;9.372;2022-09-02T02:36:34;2.57;;;2.27;;
15831;SDS011;8016;49.928;9.372;2022-09-02T02:39:01;4.70;;;2.40;;
15831;SDS011;8016;49.928;9.372;2022-09-02T02:41:28;2.73;;;2.53;;
15831;SDS011;8016;49.928;9.372;2022-09-02T02:43:54;4.07;;;2.53;;
15831;SDS011;8016;49.928;9.372;2022-09-02T02:46:20;2.90;;;2.50;;
15831;SDS011;8016;49.928;9.372;2022-09-02T02:48:46;2.47;;;2.27;;
15831;SDS011;8016;49.928;9.372;2022-09-02T02:51:12;5.27;;;2.33;;
15831;SDS011;8016;49.928;9.372;2022-09-02T02:53:38;3.50;;;2.20;;
15831;SDS011;8016;49.928;9.372;2022-09-02T02:56:05;4.57;;;2.60;;
15831;SDS011;8016;49.928;9.372;2022-09-02T02:58:31;3.23;;;2.53;;
15831;SDS011;8016;49.928;9.372;2022-09-02T03:00:57;4.27;;;2.60;;
15831;SDS011;8016;49.928;9.372;2022-09-02T03:03:24;3.57;;;2.17;;
15831;SDS011;8016;49.928;9.372;2022-09-02T03:05:50;3.80;;;2.40;;
15831;SDS011;8016;49.928;9.372;2022-09-02T03:08:17;7.03;;;2.50;;
15831;SDS011;8016;49.928;9.372;2022-09-02T03:10:45;5.17;;;2.10;;
15831;SDS011;8016;49.928;9.372;2022-09-02T03:13:11;4.07;;;2.40;;
15831;SDS011;8016;49.928;9.372;2022-09-02T03:15:40;3.10;;;2.53;;
15831;SDS011;8016;49.928;9.372;2022-09-02T03:18:06;4.63;;;2.30;;
15831;SDS011;8016;49.928;9.372;2022-09-02T03:20:32;2.63;;;2.30;;
15831;SDS011;8016;49.928;9.372;2022-09-02T03:22:58;2.50;;;2.10;;
15831;SDS011;8016;49.928;9.372;2022-09-02T03:25:26;2.47;;;2.17;;
15831;SDS011;8016;49.928;9.372;2022-09-02T03:27:53;3.07;;;2.13;;
15831;SDS011;8016;49.928;9.372;2022-09-02T03:30:23;2.30;;;2.10;;
15831;SDS011;8016;49.928;9.372;2022-09-02T03:32:49;7.23;;;2.30;;
15831;SDS011;8016;49.928;9.372;2022-09-02T03:35:17;3.23;;;2.50;;
15831;SDS011;8016;49.928;9.372;2022-09-02T03:37:44;2.63;;;2.40;;
15831;SDS011;8016;49.928;9.372;2022-09-02T03:40:12;5.70;;;2.47;;
15831;SDS011;8016;49.928;9.372;2022-09-02T03:42:38;2.73;;;2.23;;
15831;SDS011;8016;49.928;9.372;2022-09-02T03:45:05;2.60;;;2.40;;
15831;SDS011;8016;49.928;9.372;2022-09-02T03:47:31;3.03;;;2.40;;
15831;SDS011;8016;49.928;9.372;2022-09-02T03:49:57;3.50;;;2.53;;
15831;SDS011;8016;49.928;9.372;2022-09-02T03:52:24;4.40;;;2.70;;
15831;SDS011;8016;49.928;9.372;2022-09-02T03:54:50;2.87;;;2.07;;
15831;SDS011;8016;49.928;9.372;2022-09-02T03:57:16;3.20;;;2.50;;
15831;SDS011;8016;49.928;9.372;2022-09-02T03:59:44;2.47;;;2.27;;
15831;SDS011;8016;49.928;9.372;2022-09-02T04:02:10;5.17;;;2.67;;
15831;SDS011;8016;49.928;9.372;2022-09-02T04:04:36;3.77;;;2.20;;
15831;SDS011;8016;49.928;9.372;2022-09-02T04:07:02;2.97;;;2.60;;
15831;SDS011;8016;49.928;9.372;2022-09-02T04:09:28;2.80;;;2.60;;
15831;SDS011;8016;49.928;9.372;2022-09-02T04:11:55;3.70;;;2.70;;
15831;SDS011;8016;49.928;9.372;2022-09-02T04:14:20;3.00;;;2.70;;
15831;SDS011;8016;49.928;9.372;2022-09-02T04:22:54;4.07;;;2.43;;
15831;SDS011;8016;49.928;9.372;2022-09-02T04:25:20;4.93;;;2.80;;
15831;SDS011;8016;49.928;9.372;2022-09-02T04:27:47;3.50;;;2.80;;
15831;SDS011;8016;49.928;9.372;2022-09-02T04:30:14;3.00;;;2.70;;
15831;SDS011;8016;49.928;9.372;2022-09-02T04:32:41;3.17;;;2.43;;
15831;SDS011;8016;49.928;9.372;2022-09-02T04:35:07;2.93;;;2.60;;
15831;SDS011;8016;49.928;9.372;2022-09-02T04:37:33;3.17;;;2.40;;
15831;SDS011;8016;49.928;9.372;2022-09-02T04:39:59;2.47;;;2.27;;
15831;SDS011;8016;49.928;9.372;2022-09-02T04:42:25;2.63;;;2.43;;
15831;SDS011;8016;49.928;9.372;2022-09-02T04:44:51;3.23;;;2.70;;
15831;SDS011;8016;49.928;9.372;2022-09-02T04:47:18;2.80;;;2.53;;
15831;SDS011;8016;49.928;9.372;2022-09-02T04:49:45;2.83;;;2.47;;
15831;SDS011;8016;49.928;9.372;2022-09-02T04:52:11;5.27;;;2.20;;
15831;SDS011;8016;49.928;9.372;2022-09-02T04:54:37;2.67;;;2.13;;
15831;SDS011;8016;49.928;9.372;2022-09-02T04:57:03;3.03;;;2.50;;
15831;SDS011;8016;49.928;9.372;2022-09-02T04:59:29;4.43;;;2.50;;
15831;SDS011;8016;49.928;9.372;2022-09-02T05:01:55;3.13;;;2.70;;
15831;SDS011;8016;49.928;9.372;2022-09-02T05:04:21;2.80;;;2.50;;
15831;SDS011;8016;49.928;9.372;2022-09-02T05:06:47;2.90;;;2.70;;
15831;SDS011;8016;49.928;9.372;2022-09-02T05:09:14;2.47;;;2.27;;
15831;SDS011;8016;49.928;9.372;2022-09-02T05:11:40;4.03;;;2.50;;
15831;SDS011;8016;49.928;9.372;2022-09-02T05:14:06;3.23;;;2.90;;
15831;SDS011;8016;49.928;9.372;2022-09-02T05:16:34;5.73;;;2.30;;
15831;SDS011;8016;49.928;9.372;2022-09-02T05:19:05;2.97;;;2.77;;
15831;SDS011;8016;49.928;9.372;2022-09-02T05:21:32;6.37;;;2.53;;
15831;SDS011;8016;49.928;9.372;2022-09-02T05:23:58;3.37;;;2.47;;
15831;SDS011;8016;49.928;9.372;2022-09-02T05:26:24;2.23;;;2.07;;
15831;SDS011;8016;49.928;9.372;2022-09-02T05:28:50;2.47;;;2.00;;
15831;SDS011;8016;49.928;9.372;2022-09-02T05:31:17;4.50;;;2.30;;
15831;SDS011;8016;49.928;9.372;2022-09-02T05:33:44;2.20;;;1.97;;
15831;SDS011;8016;49.928;9.372;2022-09-02T05:36:11;5.83;;;2.47;;
15831;SDS011;8016;49.928;9.372;2022-09-02T05:38:38;3.87;;;2.10;;
15831;SDS011;8016;49.928;9.372;2022-09-02T05:41:05;2.17;;;1.97;;
15831;SDS011;8016;49.928;9.372;2022-09-02T05:43:34;3.83;;;2.20;;
15831;SDS011;8016;49.928;9.372;2022-09-02T05:46:02;3.47;;;2.87;;
15831;SDS011;8016;49.928;9.372;2022-09-02T05:48:30;1.93;;;1.80;;
15831;SDS011;8016;49.928;9.372;2022-09-02T05:51:15;3.93;;;2.10;;
15831;SDS011;8016;49.928;9.372;2022-09-02T05:53:41;2.13;;;1.93;;
15831;SDS011;8016;49.928;9.372;2022-09-02T05:56:07;1.90;;;1.70;;
15831;SDS011;8016;49.928;9.372;2022-09-02T05:58:33;2.60;;;2.40;;
15831;SDS011;8016;49.928;9.372;2022-09-02T06:00:59;1.60;;;1.50;;
15831;SDS011;8016;49.928;9.372;2022-09-02T06:03:25;1.83;;;1.60;;
15831;SDS011;8016;49.928;9.372;2022-09-02T06:05:54;4.97;;;2.20;;
15831;SDS011;8016;49.928;9.372;2022-09-02T06:08:21;5.63;;;2.00;;
15831;SDS011;8016;49.928;9.372;2022-09-02T06:10:47;3.20;;;2.90;;
15831;SDS011;8016;49.928;9.372;2022-09-02T06:13:13;2.20;;;2.00;;
15831;SDS011;8016;49.928;9.372;2022-09-02T06:15:42;1.80;;;1.63;;
15831;SDS011;8016;49.928;9.372;2022-09-02T06:18:09;2.07;;;1.40;;
15831;SDS011;8016;49.928;9.372;2022-09-02T06:20:38;1.60;;;1.50;;
15831;SDS011;8016;49.928;9.372;2022-09-02T06:23:05;1.97;;;1.67;;
15831;SDS011;8016;49.928;9.372;2022-09-02T06:25:30;2.40;;;1.77;;
15831;SDS011;8016;49.928;9.372;2022-09-02T06:27:56;4.50;;;1.70;;
15831;SDS011;8016;49.928;9.372;2022-09-02T06:30:22;1.80;;;1.70;;
15831;SDS011;8016;49.928;9.372;2022-09-02T06:32:48;2.13;;;1.70;;
15831;SDS011;8016;49.928;9.372;2022-09-02T06:35:14;2.67;;;1.77;;
15831;SDS011;8016;49.928;9.372;2022-09-02T06:37:40;1.60;;;1.50;;
15831;SDS011;8016;49.928;9.372;2022-09-02T06:40:07;2.40;;;1.53;;
15831;SDS011;8016;49.928;9.372;2022-09-02T06:42:33;3.00;;;1.70;;
15831;SDS011;8016;49.928;9.372;2022-09-02T06:44:59;2.07;;;1.60;;
15831;SDS011;8016;49.928;9.372;2022-09-02T06:47:25;3.37;;;1.70;;
15831;SDS011;8016;49.928;9.372;2022-09-02T06:49:51;3.57;;;1.97;;
15831;SDS011;8016;49.928;9.372;2022-09-02T06:52:17;3.00;;;1.83;;
15831;SDS011;8016;49.928;9.372;2022-09-02T06:54:43;6.20;;;1.50;;
15831;SDS011;8016;49.928;9.372;2022-09-02T06:57:08;2.03;;;1.43;;
15831;SDS011;8016;49.928;9.372;2022-09-02T06:59:35;2.13;;;1.43;;
15831;SDS011;8016;49.928;9.372;2022-09-02T07:02:01;1.80;;;1.30;;
15831;SDS011;8016;49.928;9.372;2022-09-02T07:04:27;2.97;;;1.40;;
15831;SDS011;8016;49.928;9.372;2022-09-02T07:07:12;1.93;;;1.30;;
15831;SDS011;8016;49.928;9.372;2022-09-02T07:09:38;3.33;;;1.30;;
15831;SDS011;8016;49.928;9.372;2022-09-02T07:12:04;1.70;;;1.27;;
15831;SDS011;8016;49.928;9.372;2022-09-02T07:14:30;3.30;;;1.47;;
15831;SDS011;8016;49.928;9.372;2022-09-02T07:16:56;3.27;;;1.37;;
15831;SDS011;8016;49.928;9.372;2022-09-02T07:19:24;1.60;;;1.40;;
15831;SDS011;8016;49.928;9.372;2022-09-02T07:21:50;2.63;;;1.30;;
15831;SDS011;8016;49.928;9.372;2022-09-02T07:24:16;2.47;;;1.47;;
15831;SDS011;8016;49.928;9.372;2022-09-02T07:26:42;1.27;;;1.17;;
15831;SDS011;8016;49.928;9.372;2022-09-02T07:29:08;1.63;;;1.00;;
15831;SDS011;8016;49.928;9.372;2022-09-02T07:31:35;3.10;;;1.27;;
15831;SDS011;8016;49.928;9.372;2022-09-02T07:34:01;1.80;;;1.23;;
15831;SDS011;8016;49.928;9.372;2022-09-02T07:36:28;3.90;;;1.10;;
15831;SDS011;8016;49.928;9.372;2022-09-02T07:38:54;1.67;;;1.10;;
15831;SDS011;8016;49.928;9.372;2022-09-02T07:41:20;1.33;;;1.20;;
15831;SDS011;8016;49.928;9.372;2022-09-02T07:43:46;1.60;;;0.97;;
15831;SDS011;8016;49.928;9.372;2022-09-02T07:46:12;3.03;;;1.40;;
15831;SDS011;8016;49.928;9.372;2022-09-02T07:48:39;4.30;;;1.30;;
15831;SDS011;8016;49.928;9.372;2022-09-02T07:51:06;1.40;;;1.20;;
15831;SDS011;8016;49.928;9.372;2022-09-02T07:53:32;4.90;;;1.40;;
15831;SDS011;8016;49.928;9.372;2022-09-02T07:55:59;2.93;;;1.30;;
15831;SDS011;8016;49.928;9.372;2022-09-02T07:58:25;1.70;;;1.27;;
15831;SDS011;8016;49.928;9.372;2022-09-02T08:00:52;1.33;;;0.90;;
15831;SDS011;8016;49.928;9.372;2022-09-02T08:03:21;2.40;;;1.60;;
15831;SDS011;8016;49.928;9.372;2022-09-02T08:05:47;2.20;;;1.20;;
15831;SDS011;8016;49.928;9.372;2022-09-02T08:08:14;2.10;;;1.03;;
15831;SDS011;8016;49.928;9.372;2022-09-02T08:10:40;2.70;;;1.33;;
15831;SDS011;8016;49.928;9.372;2022-09-02T08:13:07;1.90;;;1.30;;
15831;SDS011;8016;49.928;9.372;2022-09-02T08:15:35;4.43;;;1.40;;
15831;SDS011;8016;49.928;9.372;2022-09-02T08:18:01;2.00;;;1.20;;
15831;SDS011;8016;49.928;9.372;2022-09-02T08:20:27;3.47;;;1.60;;
15831;SDS011;8016;49.928;9.372;2022-09-02T08:22:54;1.60;;;1.03;;
15831;SDS011;8016;49.928;9.372;2022-09-02T08:25:20;3.77;;;1.30;;
15831;SDS011;8016;49.928;9.372;2022-09-02T08:27:46;1.90;;;1.50;;
15831;SDS011;8016;49.928;9.372;2022-09-02T08:30:13;4.10;;;1.40;;
15831;SDS011;8016;49.928;9.372;2022-09-02T08:32:39;3.97;;;1.50;;
15831;SDS011;8016;49.928;9.372;2022-09-02T08:35:05;1.40;;;1.07;;
15831;SDS011;8016;49.928;9.372;2022-09-02T08:37:32;1.50;;;1.20;;
15831;SDS011;8016;49.928;9.372;2022-09-02T08:40:00;3.50;;;1.13;;
15831;SDS011;8016;49.928;9.372;2022-09-02T08:42:31;2.70;;;1.30;;
15831;SDS011;8016;49.928;9.372;2022-09-02T08:44:59;3.17;;;1.47;;
15831;SDS011;8016;49.928;9.372;2022-09-02T08:47:29;2.30;;;1.20;;
15831;SDS011;8016;49.928;9.372;2022-09-02T08:49:56;6.87;;;1.30;;
15831;SDS011;8016;49.928;9.372;2022-09-02T08:52:35;1.47;;;1.10;;
15831;SDS011;8016;49.928;9.372;2022-09-02T08:55:04;5.97;;;1.30;;
15831;SDS011;8016;49.928;9.372;2022-09-02T08:57:32;2.80;;;1.20;;
15831;SDS011;8016;49.928;9.372;2022-09-02T08:59:59;3.47;;;1.00;;
15831;SDS011;8016;49.928;9.372;2022-09-02T09:02:44;2.23;;;1.13;;
15831;SDS011;8016;49.928;9.372;2022-09-02T09:08:02;2.83;;;1.20;;
15831;SDS011;8016;49.928;9.372;2022-09-02T09:15:48;2.33;;;1.13;;
15831;SDS011;8016;49.928;9.372;2022-09-02T09:18:16;6.33;;;1.20;;
15831;SDS011;8016;49.928;9.372;2022-09-02T09:20:43;1.40;;;1.30;;
15831;SDS011;8016;49.928;9.372;2022-09-02T09:23:24;1.63;;;1.17;;
15831;SDS011;8016;49.928;9.372;2022-09-02T09:25:54;4.50;;;1.30;;
15831;SDS011;8016;49.928;9.372;2022-09-02T09:28:21;3.43;;;1.40;;
15831;SDS011;8016;49.928;9.372;2022-09-02T09:30:47;3.50;;;1.37;;
15831;SDS011;8016;49.928;9.372;2022-09-02T09:33:14;2.77;;;1.53;;
15831;SDS011;8016;49.928;9.372;2022-09-02T09:35:48;1.17;;;1.00;;
15831;SDS011;8016;49.928;9.372;2022-09-02T09:38:14;4.27;;;2.00;;
15831;SDS011;8016;49.928;9.372;2022-09-02T09:40:40;4.33;;;1.50;;
15831;SDS011;8016;49.928;9.372;2022-09-02T09:45:43;2.33;;;1.33;;
15831;SDS011;8016;49.928;9.372;2022-09-02T09:48:16;3.90;;;1.57;;
15831;SDS011;8016;49.928;9.372;2022-09-02T09:50:43;1.10;;;1.00;;
15831;SDS011;8016;49.928;9.372;2022-09-02T09:53:13;4.63;;;1.20;;
15831;SDS011;8016;49.928;9.372;2022-09-02T09:55:48;3.33;;;1.00;;
15831;SDS011;8016;49.928;9.372;2022-09-02T09:58:15;4.40;;;1.20;;
15831;SDS011;8016;49.928;9.372;2022-09-02T10:00:41;1.93;;;0.93;;
15831;SDS011;8016;49.928;9.372;2022-09-02T10:03:08;13.07;;;1.30;;
15831;SDS011;8016;49.928;9.372;2022-09-02T10:05:54;3.87;;;1.10;;
15831;SDS011;8016;49.928;9.372;2022-09-02T10:08:22;2.27;;;1.10;;
15831;SDS011;8016;49.928;9.372;2022-09-02T10:11:02;2.37;;;1.33;;
15831;SDS011;8016;49.928;9.372;2022-09-02T10:13:30;2.03;;;1.30;;
15831;SDS011;8016;49.928;9.372;2022-09-02T10:18:26;4.90;;;1.30;;
15831;SDS011;8016;49.928;9.372;2022-09-02T10:21:19;4.57;;;1.17;;
15831;SDS011;8016;49.928;9.372;2022-09-02T10:26:36;1.77;;;1.00;;
15831;SDS011;8016;49.928;9.372;2022-09-02T10:42:20;1.70;;;1.10;;
15831;SDS011;8016;49.928;9.372;2022-09-02T10:45:02;5.27;;;0.90;;
15831;SDS011;8016;49.928;9.372;2022-09-02T10:47:37;1.37;;;0.80;;
15831;SDS011;8016;49.928;9.372;2022-09-02T10:50:20;1.57;;;1.10;;
15831;SDS011;8016;49.928;9.372;2022-09-02T11:00:39;2.67;;;1.50;;
15831;SDS011;8016;49.928;9.372;2022-09-02T11:03:13;2.57;;;0.90;;
15831;SDS011;8016;49.928;9.372;2022-09-02T11:05:49;2.93;;;1.00;;
15831;SDS011;8016;49.928;9.372;2022-09-02T11:10:59;1.33;;;0.90;;
15831;SDS011;8016;49.928;9.372;2022-09-02T11:26:23;4.07;;;1.10;;
15831;SDS011;8016;49.928;9.372;2022-09-02T11:28:56;3.70;;;0.90;;
15831;SDS011;8016;49.928;9.372;2022-09-02T11:31:29;1.37;;;0.90;;
15831;SDS011;8016;49.928;9.372;2022-09-02T11:33:59;1.20;;;0.77;;
15831;SDS011;8016;49.928;9.372;2022-09-02T11:36:27;2.13;;;1.10;;
15831;SDS011;8016;49.928;9.372;2022-09-02T11:38:54;2.67;;;1.27;;
15831;SDS011;8016;49.928;9.372;2022-09-02T11:41:29;2.47;;;1.17;;
15831;SDS011;8016;49.928;9.372;2022-09-02T11:44:03;1.20;;;0.83;;
15831;SDS011;8016;49.928;9.372;2022-09-02T11:52:03;1.20;;;0.90;;
15831;SDS011;8016;49.928;9.372;2022-09-02T11:54:32;3.60;;;1.00;;
15831;SDS011;8016;49.928;9.372;2022-09-02T11:57:00;1.00;;;0.80;;
15831;SDS011;8016;49.928;9.372;2022-09-02T12:02:12;2.60;;;1.00;;
15831;SDS011;8016;49.928;9.372;2022-09-02T12:04:39;3.70;;;1.00;;
15831;SDS011;8016;49.928;9.372;2022-09-02T12:09:53;2.13;;;1.00;;
15831;SDS011;8016;49.928;9.372;2022-09-02T12:23:09;1.17;;;0.80;;
15831;SDS011;8016;49.928;9.372;2022-09-02T12:25:44;1.00;;;0.83;;
15831;SDS011;8016;49.928;9.372;2022-09-02T12:28:14;2.10;;;1.03;;
15831;SDS011;8016;49.928;9.372;2022-09-02T12:33:29;2.40;;;0.70;;
15831;SDS011;8016;49.928;9.372;2022-09-02T12:35:55;2.63;;;0.87;;
15831;SDS011;8016;49.928;9.372;2022-09-02T12:38:32;1.43;;;1.03;;
15831;SDS011;8016;49.928;9.372;2022-09-02T12:46:04;2.03;;;0.83;;
15831;SDS011;8016;49.928;9.372;2022-09-02T12:48:41;2.63;;;1.10;;
15831;SDS011;8016;49.928;9.372;2022-09-02T12:51:09;2.03;;;0.73;;
15831;SDS011;8016;49.928;9.372;2022-09-02T12:53:37;2.93;;;0.80;;
15831;SDS011;8016;49.928;9.372;2022-09-02T12:58:34;1.17;;;1.00;;
15831;SDS011;8016;49.928;9.372;2022-09-02T13:01:05;3.40;;;0.80;;
15831;SDS011;8016;49.928;9.372;2022-09-02T13:08:50;1.40;;;1.10;;
15831;SDS011;8016;49.928;9.372;2022-09-02T13:16:43;2.43;;;0.90;;
15831;SDS011;8016;49.928;9.372;2022-09-02T13:19:26;2.53;;;0.90;;
15831;SDS011;8016;49.928;9.372;2022-09-02T13:27:26;2.60;;;0.90;;
15831;SDS011;8016;49.928;9.372;2022-09-02T13:30:05;1.10;;;1.00;;
15831;SDS011;8016;49.928;9.372;2022-09-02T13:32:32;1.03;;;0.70;;
15831;SDS011;8016;49.928;9.372;2022-09-02T13:35:06;1.60;;;1.00;;
15831;SDS011;8016;49.928;9.372;2022-09-02T13:37:34;1.27;;;0.90;;
15831;SDS011;8016;49.928;9.372;2022-09-02T13:40:05;1.97;;;0.83;;
15831;SDS011;8016;49.928;9.372;2022-09-02T13:42:32;1.13;;;1.03;;
15831;SDS011;8016;49.928;9.372;2022-09-02T13:45:12;1.37;;;1.13;;
15831;SDS011;8016;49.928;9.372;2022-09-02T13:47:42;3.33;;;0.90;;
15831;SDS011;8016;49.928;9.372;2022-09-02T13:50:08;1.83;;;0.97;;
15831;SDS011;8016;49.928;9.372;2022-09-02T13:52:36;1.43;;;1.00;;
15831;SDS011;8016;49.928;9.372;2022-09-02T13:55:03;2.13;;;1.10;;
15831;SDS011;8016;49.928;9.372;2022-09-02T13:57:29;4.63;;;0.90;;
15831;SDS011;8016;49.928;9.372;2022-09-02T13:59:55;2.63;;;0.90;;
15831;SDS011;8016;49.928;9.372;2022-09-02T14:04:49;1.23;;;0.83;;
15831;SDS011;8016;49.928;9.372;2022-09-02T14:07:16;2.63;;;0.90;;
15831;SDS011;8016;49.928;9.372;2022-09-02T14:09:43;2.13;;;0.83;;
15831;SDS011;8016;49.928;9.372;2022-09-02T14:12:10;1.83;;;0.97;;
15831;SDS011;8016;49.928;9.372;2022-09-02T14:14:36;1.20;;;0.90;;
15831;SDS011;8016;49.928;9.372;2022-09-02T14:17:16;2.03;;;1.10;;
15831;SDS011;8016;49.928;9.372;2022-09-02T14:19:43;1.10;;;0.97;;
15831;SDS011;8016;49.928;9.372;2022-09-02T14:22:18;1.80;;;0.90;;
15831;SDS011;8016;49.928;9.372;2022-09-02T14:24:45;2.40;;;1.00;;
15831;SDS011;8016;49.928;9.372;2022-09-02T14:27:19;1.40;;;0.97;;
15831;SDS011;8016;49.928;9.372;2022-09-02T14:29:46;1.67;;;1.13;;
15831;SDS011;8016;49.928;9.372;2022-09-02T14:32:14;2.87;;;1.00;;
15831;SDS011;8016;49.928;9.372;2022-09-02T14:34:45;1.80;;;0.83;;
15831;SDS011;8016;49.928;9.372;2022-09-02T14:37:19;3.70;;;0.90;;
15831;SDS011;8016;49.928;9.372;2022-09-02T14:42:43;5.50;;;1.03;;
15831;SDS011;8016;49.928;9.372;2022-09-02T14:45:11;2.23;;;1.10;;
15831;SDS011;8016;49.928;9.372;2022-09-02T14:47:37;2.60;;;1.20;;
15831;SDS011;8016;49.928;9.372;2022-09-02T14:50:04;1.50;;;1.00;;
15831;SDS011;8016;49.928;9.372;2022-09-02T14:52:34;1.07;;;0.77;;
15831;SDS011;8016;49.928;9.372;2022-09-02T14:55:01;2.33;;;1.00;;
15831;SDS011;8016;49.928;9.372;2022-09-02T14:57:31;1.27;;;1.00;;
15831;SDS011;8016;49.928;9.372;2022-09-02T14:59:58;2.83;;;0.90;;
15831;SDS011;8016;49.928;9.372;2022-09-02T15:04:54;1.77;;;0.77;;
15831;SDS011;8016;49.928;9.372;2022-09-02T15:07:21;3.20;;;1.00;;
15831;SDS011;8016;49.928;9.372;2022-09-02T15:09:47;0.90;;;0.80;;
15831;SDS011;8016;49.928;9.372;2022-09-02T15:12:18;1.93;;;0.90;;
15831;SDS011;8016;49.928;9.372;2022-09-02T15:14:46;2.57;;;1.20;;
15831;SDS011;8016;49.928;9.372;2022-09-02T15:17:14;1.83;;;0.90;;
15831;SDS011;8016;49.928;9.372;2022-09-02T15:19:40;1.40;;;0.80;;
15831;SDS011;8016;49.928;9.372;2022-09-02T15:22:06;1.73;;;0.83;;
15831;SDS011;8016;49.928;9.372;2022-09-02T15:24:32;1.07;;;0.70;;
15831;SDS011;8016;49.928;9.372;2022-09-02T15:26:58;1.60;;;1.17;;
15831;SDS011;8016;49.928;9.372;2022-09-02T15:29:24;4.83;;;0.80;;
15831;SDS011;8016;49.928;9.372;2022-09-02T15:31:50;1.50;;;0.80;;
15831;SDS011;8016;49.928;9.372;2022-09-02T15:34:16;2.40;;;0.97;;
15831;SDS011;8016;49.928;9.372;2022-09-02T15:36:42;1.73;;;0.80;;
15831;SDS011;8016;49.928;9.372;2022-09-02T15:39:09;2.70;;;1.20;;
15831;SDS011;8016;49.928;9.372;2022-09-02T15:41:35;2.87;;;1.10;;
15831;SDS011;8016;49.928;9.372;2022-09-02T15:44:03;2.57;;;0.73;;
15831;SDS011;8016;49.928;9.372;2022-09-02T15:46:31;0.60;;;0.60;;
15831;SDS011;8016;49.928;9.372;2022-09-02T15:49:07;0.97;;;0.70;;
15831;SDS011;8016;49.928;9.372;2022-09-02T15:51:34;1.90;;;1.07;;
15831;SDS011;8016;49.928;9.372;2022-09-02T15:54:06;2.13;;;0.93;;
15831;SDS011;8016;49.928;9.372;2022-09-02T15:56:33;1.37;;;0.80;;
15831;SDS011;8016;49.928;9.372;2022-09-02T15:59:00;4.20;;;1.10;;
15831;SDS011;8016;49.928;9.372;2022-09-02T16:01:28;4.50;;;1.07;;
15831;SDS011;8016;49.928;9.372;2022-09-02T16:03:54;2.17;;;0.70;;
15831;SDS011;8016;49.928;9.372;2022-09-02T16:06:21;3.63;;;0.80;;
15831;SDS011;8016;49.928;9.372;2022-09-02T16:08:47;1.50;;;0.90;;
15831;SDS011;8016;49.928;9.372;2022-09-02T16:11:13;1.07;;;0.90;;
15831;SDS011;8016;49.928;9.372;2022-09-02T16:13:39;1.00;;;0.90;;
15831;SDS011;8016;49.928;9.372;2022-09-02T16:16:07;2.50;;;1.00;;
15831;SDS011;8016;49.928;9.372;2022-09-02T16:18:33;2.60;;;0.97;;
15831;SDS011;8016;49.928;9.372;2022-09-02T16:20:59;2.83;;;1.00;;
15831;SDS011;8016;49.928;9.372;2022-09-02T16:23:26;4.23;;;1.00;;
15831;SDS011;8016;49.928;9.372;2022-09-02T16:26:05;1.30;;;0.80;;
15831;SDS011;8016;49.928;9.372;2022-09-02T16:28:33;3.07;;;1.00;;
15831;SDS011;8016;49.928;9.372;2022-09-02T16:30:59;2.00;;;1.00;;
15831;SDS011;8016;49.928;9.372;2022-09-02T16:33:25;3.20;;;0.90;;
15831;SDS011;8016;49.928;9.372;2022-09-02T16:35:51;3.30;;;1.00;;
15831;SDS011;8016;49.928;9.372;2022-09-02T16:38:17;5.07;;;0.80;;
15831;SDS011;8016;49.928;9.372;2022-09-02T16:40:49;1.83;;;0.70;;
15831;SDS011;8016;49.928;9.372;2022-09-02T16:43:15;2.60;;;1.00;;
15831;SDS011;8016;49.928;9.372;2022-09-02T16:45:41;1.93;;;1.00;;
15831;SDS011;8016;49.928;9.372;2022-09-02T16:48:08;2.70;;;1.00;;
15831;SDS011;8016;49.928;9.372;2022-09-02T16:50:34;4.00;;;1.10;;
15831;SDS011;8016;49.928;9.372;2022-09-02T16:53:04;1.23;;;0.80;;
15831;SDS011;8016;49.928;9.372;2022-09-02T16:55:31;1.67;;;0.70;;
15831;SDS011;8016;49.928;9.372;2022-09-02T16:57:57;3.57;;;1.10;;
15831;SDS011;8016;49.928;9.372;2022-09-02T17:00:26;1.33;;;0.90;;